Terminal Aerodrome Forecast
Issued by NWS Houston/Galveston, TX

Home | Current Version | Previous Version | Text Only | Print | Product List | Glossary On
Versions: 1 2 3 4 5 6 7 8 9 10 11 12 13 14 15 16 17 18 19 20 21 22 23 24 25 26 27 28 29 30 31 32 33 34 35 36 37 38 39 40 41 42 43 44
000
FTUS44 KHGX 270025 AAB
TAFCLL
TAF AMD
KCLL 270025Z 2700/2724 09011G20KT P6SM VCTS SCT009 OVC015CB
     FM270700 16013KT P6SM SCT007 OVC010
     FM271200 14013G22KT P6SM VCTS SCT010 OVC025CB=

USA.gov is the U.S. government's official web portal to all federal, state and local government web resources and services.